sensor_id;sensor_type;location;lat;lon;timestamp;P1;durP1;ratioP1;P2;durP2;ratioP2
22486;SDS011;11410;53.046;10.512;2023-12-07T00:02:43;29.70;;;11.20;;
22486;SDS011;11410;53.046;10.512;2023-12-07T00:06:45;36.97;;;11.50;;
22486;SDS011;11410;53.046;10.512;2023-12-07T00:10:47;37.53;;;14.02;;
22486;SDS011;11410;53.046;10.512;2023-12-07T00:14:48;41.47;;;11.68;;
22486;SDS011;11410;53.046;10.512;2023-12-07T00:18:50;28.05;;;11.10;;
22486;SDS011;11410;53.046;10.512;2023-12-07T00:22:52;37.78;;;13.02;;
22486;SDS011;11410;53.046;10.512;2023-12-07T00:26:54;38.35;;;11.85;;
22486;SDS011;11410;53.046;10.512;2023-12-07T00:30:57;28.38;;;12.10;;
22486;SDS011;11410;53.046;10.512;2023-12-07T00:34:59;33.97;;;12.25;;
22486;SDS011;11410;53.046;10.512;2023-12-07T00:39:00;33.83;;;12.73;;
22486;SDS011;11410;53.046;10.512;2023-12-07T00:43:02;43.55;;;12.10;;
22486;SDS011;11410;53.046;10.512;2023-12-07T00:47:04;36.40;;;12.18;;
22486;SDS011;11410;53.046;10.512;2023-12-07T00:51:06;43.00;;;14.48;;
22486;SDS011;11410;53.046;10.512;2023-12-07T00:55:08;33.72;;;12.40;;
22486;SDS011;11410;53.046;10.512;2023-12-07T00:59:13;35.33;;;13.40;;
22486;SDS011;11410;53.046;10.512;2023-12-07T01:03:14;28.42;;;11.02;;
22486;SDS011;11410;53.046;10.512;2023-12-07T01:07:16;37.28;;;13.45;;
22486;SDS011;11410;53.046;10.512;2023-12-07T01:11:18;42.03;;;13.27;;
22486;SDS011;11410;53.046;10.512;2023-12-07T01:15:20;30.45;;;12.45;;
22486;SDS011;11410;53.046;10.512;2023-12-07T01:19:22;33.47;;;12.18;;
22486;SDS011;11410;53.046;10.512;2023-12-07T01:23:23;28.40;;;11.48;;
22486;SDS011;11410;53.046;10.512;2023-12-07T01:27:25;39.22;;;14.63;;
22486;SDS011;11410;53.046;10.512;2023-12-07T01:31:27;37.15;;;13.68;;
22486;SDS011;11410;53.046;10.512;2023-12-07T01:35:28;39.22;;;11.20;;
22486;SDS011;11410;53.046;10.512;2023-12-07T01:39:30;37.08;;;12.23;;
22486;SDS011;11410;53.046;10.512;2023-12-07T01:43:32;40.75;;;14.57;;
22486;SDS011;11410;53.046;10.512;2023-12-07T01:47:34;41.90;;;13.07;;
22486;SDS011;11410;53.046;10.512;2023-12-07T01:51:38;38.05;;;12.20;;
22486;SDS011;11410;53.046;10.512;2023-12-07T01:55:40;44.92;;;13.95;;
22486;SDS011;11410;53.046;10.512;2023-12-07T01:59:42;41.50;;;12.45;;
22486;SDS011;11410;53.046;10.512;2023-12-07T02:03:43;35.70;;;11.93;;
22486;SDS011;11410;53.046;10.512;2023-12-07T02:07:45;40.00;;;11.82;;
22486;SDS011;11410;53.046;10.512;2023-12-07T02:11:47;41.75;;;13.27;;
22486;SDS011;11410;53.046;10.512;2023-12-07T02:15:49;43.67;;;12.80;;
22486;SDS011;11410;53.046;10.512;2023-12-07T02:19:57;42.72;;;13.30;;
22486;SDS011;11410;53.046;10.512;2023-12-07T02:24:12;41.93;;;14.63;;
22486;SDS011;11410;53.046;10.512;2023-12-07T02:28:23;40.13;;;11.32;;
22486;SDS011;11410;53.046;10.512;2023-12-07T02:32:25;48.65;;;14.52;;
22486;SDS011;11410;53.046;10.512;2023-12-07T02:36:27;47.97;;;14.10;;
22486;SDS011;11410;53.046;10.512;2023-12-07T02:40:30;52.35;;;15.55;;
22486;SDS011;11410;53.046;10.512;2023-12-07T02:44:33;49.45;;;14.95;;
22486;SDS011;11410;53.046;10.512;2023-12-07T02:48:35;47.25;;;14.82;;
22486;SDS011;11410;53.046;10.512;2023-12-07T02:52:38;54.78;;;14.32;;
22486;SDS011;11410;53.046;10.512;2023-12-07T02:56:40;52.40;;;14.90;;
22486;SDS011;11410;53.046;10.512;2023-12-07T03:00:41;48.10;;;13.82;;
22486;SDS011;11410;53.046;10.512;2023-12-07T03:04:43;44.13;;;14.52;;
22486;SDS011;11410;53.046;10.512;2023-12-07T03:08:45;54.50;;;14.57;;
22486;SDS011;11410;53.046;10.512;2023-12-07T03:12:47;48.17;;;12.98;;
22486;SDS011;11410;53.046;10.512;2023-12-07T03:16:48;47.08;;;12.52;;
22486;SDS011;11410;53.046;10.512;2023-12-07T03:20:50;45.50;;;13.13;;
22486;SDS011;11410;53.046;10.512;2023-12-07T03:24:52;47.47;;;12.30;;
22486;SDS011;11410;53.046;10.512;2023-12-07T03:28:54;46.40;;;12.85;;
22486;SDS011;11410;53.046;10.512;2023-12-07T03:32:56;41.67;;;13.75;;
22486;SDS011;11410;53.046;10.512;2023-12-07T03:36:58;45.78;;;12.23;;
22486;SDS011;11410;53.046;10.512;2023-12-07T03:40:59;50.45;;;13.75;;
22486;SDS011;11410;53.046;10.512;2023-12-07T03:45:01;40.95;;;13.50;;
22486;SDS011;11410;53.046;10.512;2023-12-07T03:49:03;47.05;;;14.18;;
22486;SDS011;11410;53.046;10.512;2023-12-07T03:53:05;43.50;;;12.45;;
22486;SDS011;11410;53.046;10.512;2023-12-07T03:57:07;48.97;;;15.43;;
22486;SDS011;11410;53.046;10.512;2023-12-07T04:01:08;46.55;;;14.77;;
22486;SDS011;11410;53.046;10.512;2023-12-07T04:05:11;40.85;;;11.95;;
22486;SDS011;11410;53.046;10.512;2023-12-07T04:09:14;41.38;;;12.10;;
22486;SDS011;11410;53.046;10.512;2023-12-07T04:13:15;48.15;;;11.65;;
22486;SDS011;11410;53.046;10.512;2023-12-07T04:17:17;49.22;;;13.40;;
22486;SDS011;11410;53.046;10.512;2023-12-07T04:21:19;36.50;;;12.95;;
22486;SDS011;11410;53.046;10.512;2023-12-07T04:25:21;45.72;;;12.45;;
22486;SDS011;11410;53.046;10.512;2023-12-07T04:29:24;37.53;;;11.07;;
22486;SDS011;11410;53.046;10.512;2023-12-07T04:33:25;39.78;;;11.88;;
22486;SDS011;11410;53.046;10.512;2023-12-07T04:37:27;39.17;;;11.48;;
22486;SDS011;11410;53.046;10.512;2023-12-07T04:41:29;36.40;;;12.82;;
22486;SDS011;11410;53.046;10.512;2023-12-07T04:45:30;36.22;;;10.25;;
22486;SDS011;11410;53.046;10.512;2023-12-07T04:49:33;42.47;;;12.27;;
22486;SDS011;11410;53.046;10.512;2023-12-07T04:53:34;55.40;;;12.00;;
22486;SDS011;11410;53.046;10.512;2023-12-07T04:57:36;36.85;;;13.57;;
22486;SDS011;11410;53.046;10.512;2023-12-07T05:01:38;48.08;;;13.63;;
22486;SDS011;11410;53.046;10.512;2023-12-07T05:05:40;42.50;;;11.45;;
22486;SDS011;11410;53.046;10.512;2023-12-07T05:09:42;39.78;;;12.93;;
22486;SDS011;11410;53.046;10.512;2023-12-07T05:13:43;39.33;;;11.38;;
22486;SDS011;11410;53.046;10.512;2023-12-07T05:17:45;38.55;;;12.15;;
22486;SDS011;11410;53.046;10.512;2023-12-07T05:21:47;49.33;;;16.25;;
22486;SDS011;11410;53.046;10.512;2023-12-07T05:25:50;44.90;;;13.30;;
22486;SDS011;11410;53.046;10.512;2023-12-07T05:29:52;39.53;;;11.98;;
22486;SDS011;11410;53.046;10.512;2023-12-07T05:33:55;41.58;;;13.07;;
22486;SDS011;11410;53.046;10.512;2023-12-07T05:37:57;47.80;;;16.15;;
22486;SDS011;11410;53.046;10.512;2023-12-07T05:41:59;41.78;;;12.98;;
22486;SDS011;11410;53.046;10.512;2023-12-07T05:46:01;41.67;;;13.52;;
22486;SDS011;11410;53.046;10.512;2023-12-07T05:50:03;36.88;;;14.30;;
22486;SDS011;11410;53.046;10.512;2023-12-07T05:54:05;35.33;;;12.98;;
22486;SDS011;11410;53.046;10.512;2023-12-07T05:58:07;36.40;;;13.60;;
22486;SDS011;11410;53.046;10.512;2023-12-07T06:02:09;43.83;;;13.85;;
22486;SDS011;11410;53.046;10.512;2023-12-07T06:06:10;49.92;;;14.55;;
22486;SDS011;11410;53.046;10.512;2023-12-07T06:10:12;47.15;;;14.73;;
22486;SDS011;11410;53.046;10.512;2023-12-07T06:14:14;40.47;;;13.95;;
22486;SDS011;11410;53.046;10.512;2023-12-07T06:18:16;44.13;;;14.73;;
22486;SDS011;11410;53.046;10.512;2023-12-07T06:22:19;52.22;;;15.38;;
22486;SDS011;11410;53.046;10.512;2023-12-07T06:26:21;44.03;;;13.95;;
22486;SDS011;11410;53.046;10.512;2023-12-07T06:30:23;40.20;;;15.30;;
22486;SDS011;11410;53.046;10.512;2023-12-07T06:34:26;47.30;;;13.82;;
22486;SDS011;11410;53.046;10.512;2023-12-07T06:38:29;46.00;;;14.13;;
22486;SDS011;11410;53.046;10.512;2023-12-07T06:42:31;42.58;;;15.15;;
22486;SDS011;11410;53.046;10.512;2023-12-07T06:46:33;41.85;;;16.23;;
22486;SDS011;11410;53.046;10.512;2023-12-07T06:50:35;42.47;;;12.55;;
22486;SDS011;11410;53.046;10.512;2023-12-07T06:54:37;44.92;;;15.90;;
22486;SDS011;11410;53.046;10.512;2023-12-07T06:58:39;39.28;;;14.20;;
22486;SDS011;11410;53.046;10.512;2023-12-07T07:02:41;45.25;;;15.30;;
22486;SDS011;11410;53.046;10.512;2023-12-07T07:06:43;49.33;;;13.93;;
22486;SDS011;11410;53.046;10.512;2023-12-07T07:10:45;39.55;;;15.23;;
22486;SDS011;11410;53.046;10.512;2023-12-07T07:14:48;41.35;;;13.95;;
22486;SDS011;11410;53.046;10.512;2023-12-07T07:18:50;49.53;;;15.68;;
22486;SDS011;11410;53.046;10.512;2023-12-07T07:22:52;44.50;;;13.30;;
22486;SDS011;11410;53.046;10.512;2023-12-07T07:26:53;48.40;;;17.17;;
22486;SDS011;11410;53.046;10.512;2023-12-07T07:30:55;34.22;;;12.63;;
22486;SDS011;11410;53.046;10.512;2023-12-07T07:34:57;42.40;;;14.20;;
22486;SDS011;11410;53.046;10.512;2023-12-07T07:38:59;49.38;;;14.05;;
22486;SDS011;11410;53.046;10.512;2023-12-07T07:43:01;41.08;;;14.80;;
22486;SDS011;11410;53.046;10.512;2023-12-07T07:47:03;43.55;;;13.40;;
22486;SDS011;11410;53.046;10.512;2023-12-07T07:51:05;50.92;;;12.57;;
22486;SDS011;11410;53.046;10.512;2023-12-07T07:55:07;37.10;;;13.73;;
22486;SDS011;11410;53.046;10.512;2023-12-07T07:59:09;44.50;;;16.30;;
22486;SDS011;11410;53.046;10.512;2023-12-07T08:03:12;42.92;;;17.08;;
22486;SDS011;11410;53.046;10.512;2023-12-07T08:07:14;44.05;;;14.25;;
22486;SDS011;11410;53.046;10.512;2023-12-07T08:11:16;36.40;;;14.25;;
22486;SDS011;11410;53.046;10.512;2023-12-07T08:15:18;46.45;;;15.90;;
22486;SDS011;11410;53.046;10.512;2023-12-07T08:19:20;35.65;;;13.50;;
22486;SDS011;11410;53.046;10.512;2023-12-07T08:23:21;42.80;;;14.55;;
22486;SDS011;11410;53.046;10.512;2023-12-07T08:27:23;44.72;;;16.52;;
22486;SDS011;11410;53.046;10.512;2023-12-07T08:31:26;48.22;;;16.05;;
22486;SDS011;11410;53.046;10.512;2023-12-07T08:35:28;46.90;;;15.93;;
22486;SDS011;11410;53.046;10.512;2023-12-07T08:39:30;40.22;;;13.25;;
22486;SDS011;11410;53.046;10.512;2023-12-07T08:43:32;44.58;;;14.93;;
22486;SDS011;11410;53.046;10.512;2023-12-07T08:47:35;40.92;;;14.63;;
22486;SDS011;11410;53.046;10.512;2023-12-07T08:51:37;49.92;;;14.52;;
22486;SDS011;11410;53.046;10.512;2023-12-07T08:55:40;43.05;;;16.75;;
22486;SDS011;11410;53.046;10.512;2023-12-07T08:59:42;50.13;;;16.15;;
22486;SDS011;11410;53.046;10.512;2023-12-07T09:03:44;47.08;;;14.98;;
22486;SDS011;11410;53.046;10.512;2023-12-07T09:07:46;38.42;;;13.90;;
22486;SDS011;11410;53.046;10.512;2023-12-07T09:11:48;56.13;;;17.60;;
22486;SDS011;11410;53.046;10.512;2023-12-07T09:15:50;31.33;;;13.32;;
22486;SDS011;11410;53.046;10.512;2023-12-07T09:19:52;41.25;;;14.95;;
22486;SDS011;11410;53.046;10.512;2023-12-07T09:23:55;42.90;;;14.10;;
22486;SDS011;11410;53.046;10.512;2023-12-07T09:27:56;47.90;;;15.32;;
22486;SDS011;11410;53.046;10.512;2023-12-07T09:31:58;42.85;;;16.02;;
22486;SDS011;11410;53.046;10.512;2023-12-07T09:35:59;44.85;;;18.23;;
22486;SDS011;11410;53.046;10.512;2023-12-07T09:40:01;49.63;;;17.85;;
22486;SDS011;11410;53.046;10.512;2023-12-07T09:44:05;38.58;;;14.13;;
22486;SDS011;11410;53.046;10.512;2023-12-07T09:48:07;39.53;;;14.20;;
22486;SDS011;11410;53.046;10.512;2023-12-07T09:52:09;36.47;;;13.25;;
22486;SDS011;11410;53.046;10.512;2023-12-07T09:56:12;31.80;;;12.98;;
22486;SDS011;11410;53.046;10.512;2023-12-07T10:00:14;39.53;;;13.98;;
22486;SDS011;11410;53.046;10.512;2023-12-07T10:04:18;34.85;;;12.43;;
22486;SDS011;11410;53.046;10.512;2023-12-07T10:08:28;34.90;;;14.32;;
22486;SDS011;11410;53.046;10.512;2023-12-07T10:12:31;35.83;;;13.95;;
22486;SDS011;11410;53.046;10.512;2023-12-07T10:16:36;40.42;;;14.73;;
22486;SDS011;11410;53.046;10.512;2023-12-07T10:20:38;34.80;;;12.15;;
22486;SDS011;11410;53.046;10.512;2023-12-07T10:24:47;34.50;;;12.35;;
22486;SDS011;11410;53.046;10.512;2023-12-07T10:28:50;35.58;;;13.20;;
22486;SDS011;11410;53.046;10.512;2023-12-07T10:32:56;42.60;;;12.55;;
22486;SDS011;11410;53.046;10.512;2023-12-07T10:36:58;39.15;;;13.00;;
22486;SDS011;11410;53.046;10.512;2023-12-07T10:41:09;30.50;;;12.38;;
22486;SDS011;11410;53.046;10.512;2023-12-07T10:45:15;35.97;;;13.48;;
22486;SDS011;11410;53.046;10.512;2023-12-07T10:49:18;41.80;;;12.85;;
22486;SDS011;11410;53.046;10.512;2023-12-07T10:53:40;37.72;;;14.02;;
22486;SDS011;11410;53.046;10.512;2023-12-07T10:57:46;36.88;;;11.00;;
22486;SDS011;11410;53.046;10.512;2023-12-07T11:01:48;34.08;;;12.02;;
22486;SDS011;11410;53.046;10.512;2023-12-07T11:05:51;38.97;;;13.07;;
22486;SDS011;11410;53.046;10.512;2023-12-07T11:10:03;36.28;;;14.02;;
22486;SDS011;11410;53.046;10.512;2023-12-07T11:14:15;33.85;;;11.40;;
22486;SDS011;11410;53.046;10.512;2023-12-07T11:18:17;33.03;;;11.80;;
22486;SDS011;11410;53.046;10.512;2023-12-07T11:22:19;41.45;;;13.55;;
22486;SDS011;11410;53.046;10.512;2023-12-07T11:26:24;32.67;;;12.07;;
22486;SDS011;11410;53.046;10.512;2023-12-07T11:30:26;33.33;;;12.50;;
22486;SDS011;11410;53.046;10.512;2023-12-07T11:34:39;47.05;;;14.77;;
22486;SDS011;11410;53.046;10.512;2023-12-07T11:43:02;48.70;;;14.40;;
22486;SDS011;11410;53.046;10.512;2023-12-07T11:47:06;31.40;;;11.52;;
22486;SDS011;11410;53.046;10.512;2023-12-07T11:51:09;33.50;;;13.32;;
22486;SDS011;11410;53.046;10.512;2023-12-07T11:55:12;33.05;;;12.13;;
22486;SDS011;11410;53.046;10.512;2023-12-07T11:59:13;39.55;;;12.75;;
22486;SDS011;11410;53.046;10.512;2023-12-07T12:03:25;30.30;;;10.55;;
22486;SDS011;11410;53.046;10.512;2023-12-07T12:07:28;33.15;;;13.02;;
22486;SDS011;11410;53.046;10.512;2023-12-07T12:11:29;30.83;;;11.15;;
22486;SDS011;11410;53.046;10.512;2023-12-07T12:15:31;35.58;;;11.98;;
22486;SDS011;11410;53.046;10.512;2023-12-07T12:19:33;33.28;;;12.05;;
22486;SDS011;11410;53.046;10.512;2023-12-07T12:23:38;31.92;;;11.80;;
22486;SDS011;11410;53.046;10.512;2023-12-07T12:27:41;35.38;;;12.27;;
22486;SDS011;11410;53.046;10.512;2023-12-07T12:31:43;34.53;;;11.88;;
22486;SDS011;11410;53.046;10.512;2023-12-07T12:35:45;36.25;;;12.40;;
22486;SDS011;11410;53.046;10.512;2023-12-07T12:39:47;39.30;;;14.23;;
22486;SDS011;11410;53.046;10.512;2023-12-07T12:43:49;32.75;;;12.00;;
22486;SDS011;11410;53.046;10.512;2023-12-07T12:47:52;43.10;;;13.20;;
22486;SDS011;11410;53.046;10.512;2023-12-07T12:51:54;25.92;;;9.55;;
22486;SDS011;11410;53.046;10.512;2023-12-07T12:55:56;36.67;;;12.05;;
22486;SDS011;11410;53.046;10.512;2023-12-07T13:00:00;37.40;;;11.30;;
22486;SDS011;11410;53.046;10.512;2023-12-07T13:04:03;29.08;;;11.48;;
22486;SDS011;11410;53.046;10.512;2023-12-07T13:08:05;32.25;;;11.52;;
22486;SDS011;11410;53.046;10.512;2023-12-07T13:12:16;27.10;;;10.23;;
22486;SDS011;11410;53.046;10.512;2023-12-07T13:16:18;32.78;;;11.88;;
22486;SDS011;11410;53.046;10.512;2023-12-07T13:20:21;28.13;;;11.32;;
22486;SDS011;11410;53.046;10.512;2023-12-07T13:24:24;29.92;;;11.23;;
22486;SDS011;11410;53.046;10.512;2023-12-07T13:28:26;32.45;;;11.30;;
22486;SDS011;11410;53.046;10.512;2023-12-07T13:32:28;31.52;;;11.68;;
22486;SDS011;11410;53.046;10.512;2023-12-07T13:36:29;29.67;;;11.82;;
22486;SDS011;11410;53.046;10.512;2023-12-07T13:40:33;28.45;;;10.27;;
22486;SDS011;11410;53.046;10.512;2023-12-07T13:44:36;30.42;;;11.85;;
22486;SDS011;11410;53.046;10.512;2023-12-07T13:48:38;31.67;;;12.10;;
22486;SDS011;11410;53.046;10.512;2023-12-07T13:52:39;38.00;;;12.88;;
22486;SDS011;11410;53.046;10.512;2023-12-07T13:56:42;31.95;;;10.90;;
22486;SDS011;11410;53.046;10.512;2023-12-07T14:00:44;32.45;;;11.57;;
22486;SDS011;11410;53.046;10.512;2023-12-07T14:04:50;33.33;;;12.38;;
22486;SDS011;11410;53.046;10.512;2023-12-07T14:08:52;33.00;;;12.10;;
22486;SDS011;11410;53.046;10.512;2023-12-07T14:12:54;30.35;;;12.38;;
22486;SDS011;11410;53.046;10.512;2023-12-07T14:16:56;32.80;;;12.07;;
22486;SDS011;11410;53.046;10.512;2023-12-07T14:21:11;22.90;;;10.00;;
22486;SDS011;11410;53.046;10.512;2023-12-07T14:25:13;30.08;;;12.07;;
22486;SDS011;11410;53.046;10.512;2023-12-07T14:29:15;33.85;;;12.48;;
22486;SDS011;11410;53.046;10.512;2023-12-07T14:33:27;32.30;;;11.82;;
22486;SDS011;11410;53.046;10.512;2023-12-07T14:37:29;39.38;;;12.27;;
22486;SDS011;11410;53.046;10.512;2023-12-07T14:41:31;34.08;;;12.68;;
22486;SDS011;11410;53.046;10.512;2023-12-07T14:45:33;32.58;;;13.30;;
22486;SDS011;11410;53.046;10.512;2023-12-07T14:49:34;23.75;;;11.93;;
22486;SDS011;11410;53.046;10.512;2023-12-07T14:53:36;30.42;;;10.02;;
22486;SDS011;11410;53.046;10.512;2023-12-07T14:57:38;31.42;;;11.88;;
22486;SDS011;11410;53.046;10.512;2023-12-07T15:01:39;29.83;;;11.18;;
22486;SDS011;11410;53.046;10.512;2023-12-07T15:05:42;29.52;;;11.00;;
22486;SDS011;11410;53.046;10.512;2023-12-07T15:09:43;29.73;;;12.27;;
22486;SDS011;11410;53.046;10.512;2023-12-07T15:13:48;34.75;;;12.73;;
22486;SDS011;11410;53.046;10.512;2023-12-07T15:17:50;24.27;;;10.38;;
22486;SDS011;11410;53.046;10.512;2023-12-07T15:21:52;44.53;;;13.15;;
22486;SDS011;11410;53.046;10.512;2023-12-07T15:25:54;27.05;;;10.25;;
22486;SDS011;11410;53.046;10.512;2023-12-07T15:29:55;30.98;;;11.90;;
22486;SDS011;11410;53.046;10.512;2023-12-07T15:33:57;31.25;;;11.15;;
22486;SDS011;11410;53.046;10.512;2023-12-07T15:37:59;28.10;;;10.73;;
22486;SDS011;11410;53.046;10.512;2023-12-07T15:42:02;26.00;;;10.15;;
22486;SDS011;11410;53.046;10.512;2023-12-07T15:46:04;23.42;;;9.27;;
22486;SDS011;11410;53.046;10.512;2023-12-07T15:50:08;28.13;;;9.43;;
22486;SDS011;11410;53.046;10.512;2023-12-07T15:54:12;25.00;;;9.27;;
22486;SDS011;11410;53.046;10.512;2023-12-07T15:58:31;31.08;;;11.23;;
22486;SDS011;11410;53.046;10.512;2023-12-07T16:02:33;29.13;;;11.07;;
22486;SDS011;11410;53.046;10.512;2023-12-07T16:06:37;36.05;;;12.10;;
22486;SDS011;11410;53.046;10.512;2023-12-07T16:10:40;31.58;;;10.63;;
22486;SDS011;11410;53.046;10.512;2023-12-07T16:14:43;26.45;;;9.15;;
22486;SDS011;11410;53.046;10.512;2023-12-07T16:18:45;21.23;;;9.73;;
22486;SDS011;11410;53.046;10.512;2023-12-07T16:22:48;28.10;;;9.88;;
22486;SDS011;11410;53.046;10.512;2023-12-07T16:26:50;25.00;;;8.15;;
22486;SDS011;11410;53.046;10.512;2023-12-07T16:30:53;25.65;;;9.10;;
22486;SDS011;11410;53.046;10.512;2023-12-07T16:34:56;26.35;;;9.38;;
22486;SDS011;11410;53.046;10.512;2023-12-07T16:38:58;23.67;;;9.15;;
22486;SDS011;11410;53.046;10.512;2023-12-07T16:43:04;32.42;;;10.77;;
22486;SDS011;11410;53.046;10.512;2023-12-07T16:47:06;25.88;;;9.55;;
22486;SDS011;11410;53.046;10.512;2023-12-07T16:51:07;33.03;;;12.35;;
22486;SDS011;11410;53.046;10.512;2023-12-07T16:55:09;26.98;;;12.05;;
22486;SDS011;11410;53.046;10.512;2023-12-07T16:59:11;22.25;;;9.70;;
22486;SDS011;11410;53.046;10.512;2023-12-07T17:03:12;31.40;;;11.35;;
22486;SDS011;11410;53.046;10.512;2023-12-07T17:07:15;27.27;;;10.57;;
22486;SDS011;11410;53.046;10.512;2023-12-07T17:11:17;30.15;;;13.10;;
22486;SDS011;11410;53.046;10.512;2023-12-07T17:15:19;31.95;;;13.05;;
22486;SDS011;11410;53.046;10.512;2023-12-07T17:19:21;37.05;;;11.90;;
22486;SDS011;11410;53.046;10.512;2023-12-07T17:23:23;31.15;;;11.23;;
22486;SDS011;11410;53.046;10.512;2023-12-07T17:27:24;24.27;;;10.20;;
22486;SDS011;11410;53.046;10.512;2023-12-07T17:31:26;29.92;;;12.02;;
22486;SDS011;11410;53.046;10.512;2023-12-07T17:35:28;31.63;;;13.48;;
22486;SDS011;11410;53.046;10.512;2023-12-07T17:39:30;26.92;;;11.20;;
22486;SDS011;11410;53.046;10.512;2023-12-07T17:43:32;38.00;;;11.70;;
22486;SDS011;11410;53.046;10.512;2023-12-07T17:47:34;32.08;;;10.75;;
22486;SDS011;11410;53.046;10.512;2023-12-07T17:51:36;23.25;;;11.50;;
22486;SDS011;11410;53.046;10.512;2023-12-07T17:55:38;34.25;;;10.45;;
22486;SDS011;11410;53.046;10.512;2023-12-07T17:59:40;29.70;;;11.73;;
22486;SDS011;11410;53.046;10.512;2023-12-07T18:03:41;28.42;;;10.70;;
22486;SDS011;11410;53.046;10.512;2023-12-07T18:07:43;33.72;;;12.13;;
22486;SDS011;11410;53.046;10.512;2023-12-07T18:11:45;27.60;;;10.93;;
22486;SDS011;11410;53.046;10.512;2023-12-07T18:15:47;26.02;;;10.27;;
22486;SDS011;11410;53.046;10.512;2023-12-07T18:19:49;30.55;;;10.48;;
22486;SDS011;11410;53.046;10.512;2023-12-07T18:23:51;29.48;;;11.90;;
22486;SDS011;11410;53.046;10.512;2023-12-07T18:27:52;29.63;;;11.93;;
22486;SDS011;11410;53.046;10.512;2023-12-07T18:31:54;33.72;;;13.30;;
22486;SDS011;11410;53.046;10.512;2023-12-07T18:35:56;19.77;;;9.73;;
22486;SDS011;11410;53.046;10.512;2023-12-07T18:39:58;35.15;;;13.68;;
22486;SDS011;11410;53.046;10.512;2023-12-07T18:44:02;23.88;;;10.68;;
22486;SDS011;11410;53.046;10.512;2023-12-07T18:48:04;28.85;;;10.93;;
22486;SDS011;11410;53.046;10.512;2023-12-07T18:52:06;27.75;;;10.82;;
22486;SDS011;11410;53.046;10.512;2023-12-07T18:56:08;32.08;;;12.15;;
22486;SDS011;11410;53.046;10.512;2023-12-07T19:00:13;25.48;;;11.85;;
22486;SDS011;11410;53.046;10.512;2023-12-07T19:04:15;31.75;;;12.15;;
22486;SDS011;11410;53.046;10.512;2023-12-07T19:08:17;33.22;;;11.82;;
22486;SDS011;11410;53.046;10.512;2023-12-07T19:12:19;21.58;;;9.85;;
22486;SDS011;11410;53.046;10.512;2023-12-07T19:16:20;24.00;;;12.70;;
22486;SDS011;11410;53.046;10.512;2023-12-07T19:20:22;25.35;;;11.50;;
22486;SDS011;11410;53.046;10.512;2023-12-07T19:24:24;30.67;;;10.15;;
22486;SDS011;11410;53.046;10.512;2023-12-07T19:28:27;30.58;;;11.82;;
22486;SDS011;11410;53.046;10.512;2023-12-07T19:32:28;33.90;;;11.20;;
22486;SDS011;11410;53.046;10.512;2023-12-07T19:36:31;31.15;;;11.52;;
22486;SDS011;11410;53.046;10.512;2023-12-07T19:40:33;28.52;;;12.20;;
22486;SDS011;11410;53.046;10.512;2023-12-07T19:44:34;24.15;;;10.40;;
22486;SDS011;11410;53.046;10.512;2023-12-07T19:48:36;34.35;;;13.57;;
22486;SDS011;11410;53.046;10.512;2023-12-07T19:52:40;33.58;;;11.25;;
22486;SDS011;11410;53.046;10.512;2023-12-07T19:56:43;36.58;;;12.18;;
22486;SDS011;11410;53.046;10.512;2023-12-07T20:00:45;25.88;;;11.95;;
22486;SDS011;11410;53.046;10.512;2023-12-07T20:04:47;34.33;;;12.05;;
22486;SDS011;11410;53.046;10.512;2023-12-07T20:08:49;31.00;;;11.48;;
22486;SDS011;11410;53.046;10.512;2023-12-07T20:12:51;37.42;;;13.05;;
22486;SDS011;11410;53.046;10.512;2023-12-07T20:16:53;34.60;;;10.75;;
22486;SDS011;11410;53.046;10.512;2023-12-07T20:20:55;37.20;;;11.93;;
22486;SDS011;11410;53.046;10.512;2023-12-07T20:24:57;32.33;;;13.07;;
22486;SDS011;11410;53.046;10.512;2023-12-07T20:28:59;32.38;;;12.10;;
22486;SDS011;11410;53.046;10.512;2023-12-07T20:33:02;29.40;;;11.98;;
22486;SDS011;11410;53.046;10.512;2023-12-07T20:37:04;47.90;;;12.32;;
22486;SDS011;11410;53.046;10.512;2023-12-07T20:41:06;33.00;;;11.05;;
22486;SDS011;11410;53.046;10.512;2023-12-07T20:45:08;36.45;;;13.27;;
22486;SDS011;11410;53.046;10.512;2023-12-07T20:49:10;37.00;;;12.18;;
22486;SDS011;11410;53.046;10.512;2023-12-07T20:53:12;28.58;;;11.00;;
22486;SDS011;11410;53.046;10.512;2023-12-07T20:57:13;40.45;;;12.93;;
22486;SDS011;11410;53.046;10.512;2023-12-07T21:01:16;33.95;;;14.57;;
22486;SDS011;11410;53.046;10.512;2023-12-07T21:05:18;33.70;;;11.85;;
22486;SDS011;11410;53.046;10.512;2023-12-07T21:09:19;30.27;;;12.45;;
22486;SDS011;11410;53.046;10.512;2023-12-07T21:13:21;31.88;;;11.00;;
22486;SDS011;11410;53.046;10.512;2023-12-07T21:17:23;34.97;;;13.60;;
22486;SDS011;11410;53.046;10.512;2023-12-07T21:21:25;37.75;;;13.32;;
22486;SDS011;11410;53.046;10.512;2023-12-07T21:25:27;33.78;;;12.13;;
22486;SDS011;11410;53.046;10.512;2023-12-07T21:29:28;27.60;;;11.45;;
22486;SDS011;11410;53.046;10.512;2023-12-07T21:33:33;23.98;;;10.95;;
22486;SDS011;11410;53.046;10.512;2023-12-07T21:37:38;23.23;;;11.35;;
22486;SDS011;11410;53.046;10.512;2023-12-07T21:41:44;33.30;;;12.98;;
22486;SDS011;11410;53.046;10.512;2023-12-07T21:45:49;26.08;;;11.88;;
22486;SDS011;11410;53.046;10.512;2023-12-07T21:49:51;25.13;;;9.98;;
22486;SDS011;11410;53.046;10.512;2023-12-07T21:53:53;35.97;;;12.80;;
22486;SDS011;11410;53.046;10.512;2023-12-07T21:57:54;35.70;;;11.23;;
22486;SDS011;11410;53.046;10.512;2023-12-07T22:01:56;35.92;;;12.65;;
22486;SDS011;11410;53.046;10.512;2023-12-07T22:05:57;36.58;;;12.65;;
22486;SDS011;11410;53.046;10.512;2023-12-07T22:09:59;32.10;;;12.10;;
22486;SDS011;11410;53.046;10.512;2023-12-07T22:14:14;23.95;;;7.50;;
22486;SDS011;11410;53.046;10.512;2023-12-07T22:18:16;26.95;;;8.25;;
22486;SDS011;11410;53.046;10.512;2023-12-07T22:22:18;26.45;;;10.45;;
22486;SDS011;11410;53.046;10.512;2023-12-07T22:26:20;25.80;;;10.02;;
22486;SDS011;11410;53.046;10.512;2023-12-07T22:30:22;27.65;;;10.75;;
22486;SDS011;11410;53.046;10.512;2023-12-07T22:34:23;25.10;;;9.20;;
22486;SDS011;11410;53.046;10.512;2023-12-07T22:38:25;25.38;;;9.65;;
22486;SDS011;11410;53.046;10.512;2023-12-07T22:42:27;19.48;;;9.57;;
22486;SDS011;11410;53.046;10.512;2023-12-07T22:46:29;17.83;;;8.98;;
22486;SDS011;11410;53.046;10.512;2023-12-07T22:50:30;24.95;;;10.88;;
22486;SDS011;11410;53.046;10.512;2023-12-07T22:54:32;20.25;;;8.27;;
22486;SDS011;11410;53.046;10.512;2023-12-07T22:58:34;22.75;;;10.00;;
22486;SDS011;11410;53.046;10.512;2023-12-07T23:02:36;22.02;;;9.95;;
22486;SDS011;11410;53.046;10.512;2023-12-07T23:06:38;20.92;;;8.80;;
22486;SDS011;11410;53.046;10.512;2023-12-07T23:10:40;30.48;;;11.05;;
22486;SDS011;11410;53.046;10.512;2023-12-07T23:14:42;18.27;;;7.35;;
22486;SDS011;11410;53.046;10.512;2023-12-07T23:18:44;20.00;;;8.82;;
22486;SDS011;11410;53.046;10.512;2023-12-07T23:22:46;21.30;;;9.57;;
22486;SDS011;11410;53.046;10.512;2023-12-07T23:26:49;21.30;;;8.48;;